sensor_id;sensor_type;location;lat;lon;timestamp;pressure;altitude;pressure_sealevel;temperature;humidity
70921;BME280;58572;48.110;19.838;2023-02-19T00:00:12;97509.91;;;6.68;71.01
70921;BME280;58572;48.110;19.838;2023-02-19T00:02:41;97585.06;;;7.01;71.00
70921;BME280;58572;48.110;19.838;2023-02-19T00:05:11;97589.84;;;6.64;71.40
70921;BME280;58572;48.110;19.838;2023-02-19T00:07:38;97591.47;;;6.65;71.55
70921;BME280;58572;48.110;19.838;2023-02-19T00:10:05;97589.94;;;7.04;74.19
70921;BME280;58572;48.110;19.838;2023-02-19T00:12:32;97586.53;;;6.42;73.28
70921;BME280;58572;48.110;19.838;2023-02-19T00:15:01;97583.88;;;5.62;75.28
70921;BME280;58572;48.110;19.838;2023-02-19T00:17:30;97579.94;;;7.05;72.17
70921;BME280;58572;48.110;19.838;2023-02-19T00:19:57;97579.59;;;6.08;75.42
70921;BME280;58572;48.110;19.838;2023-02-19T00:22:24;97572.63;;;6.90;73.87
70921;BME280;58572;48.110;19.838;2023-02-19T00:24:51;97571.81;;;6.90;70.72
70921;BME280;58572;48.110;19.838;2023-02-19T00:27:18;97561.56;;;7.07;73.50
70921;BME280;58572;48.110;19.838;2023-02-19T00:29:45;97561.22;;;6.63;73.30
70921;BME280;58572;48.110;19.838;2023-02-19T00:32:13;97564.91;;;6.36;74.73
70921;BME280;58572;48.110;19.838;2023-02-19T00:34:41;97551.50;;;6.67;73.50
70921;BME280;58572;48.110;19.838;2023-02-19T00:37:08;97565.00;;;6.67;72.68
70921;BME280;58572;48.110;19.838;2023-02-19T00:39:35;97558.47;;;5.95;75.51
70921;BME280;58572;48.110;19.838;2023-02-19T00:42:02;97562.66;;;6.23;75.30
70921;BME280;58572;48.110;19.838;2023-02-19T00:44:29;97577.31;;;6.32;74.67
70921;BME280;58572;48.110;19.838;2023-02-19T00:46:56;97577.34;;;6.37;73.56
70921;BME280;58572;48.110;19.838;2023-02-19T00:49:25;97585.66;;;6.31;74.27
70921;BME280;58572;48.110;19.838;2023-02-19T00:51:52;97595.50;;;6.57;73.93
70921;BME280;58572;48.110;19.838;2023-02-19T00:54:20;97600.69;;;6.17;74.40
70921;BME280;58572;48.110;19.838;2023-02-19T00:56:48;97597.56;;;7.74;71.84
70921;BME280;58572;48.110;19.838;2023-02-19T00:59:15;97578.53;;;6.77;73.22
70921;BME280;58572;48.110;19.838;2023-02-19T01:01:43;97592.19;;;7.43;69.48
70921;BME280;58572;48.110;19.838;2023-02-19T01:04:10;97610.03;;;6.46;72.91
70921;BME280;58572;48.110;19.838;2023-02-19T01:06:39;97612.47;;;6.48;73.42
70921;BME280;58572;48.110;19.838;2023-02-19T01:09:07;97590.53;;;7.83;72.00
70921;BME280;58572;48.110;19.838;2023-02-19T01:11:34;97597.59;;;7.53;71.33
70921;BME280;58572;48.110;19.838;2023-02-19T01:14:02;97588.34;;;7.90;69.91
70921;BME280;58572;48.110;19.838;2023-02-19T01:16:29;97608.00;;;6.79;73.45
70921;BME280;58572;48.110;19.838;2023-02-19T01:18:57;97612.63;;;6.88;72.44
70921;BME280;58572;48.110;19.838;2023-02-19T01:21:25;97612.47;;;6.48;75.21
70921;BME280;58572;48.110;19.838;2023-02-19T01:23:55;97599.13;;;6.93;73.36
70921;BME280;58572;48.110;19.838;2023-02-19T01:26:24;97570.53;;;7.43;69.69
70921;BME280;58572;48.110;19.838;2023-02-19T01:28:52;97573.44;;;6.91;73.30
70921;BME280;58572;48.110;19.838;2023-02-19T01:31:20;97579.41;;;7.18;71.83
70921;BME280;58572;48.110;19.838;2023-02-19T01:33:51;97458.38;;;5.92;73.01
70921;BME280;58572;48.110;19.838;2023-02-19T01:36:18;97495.59;;;6.62;72.37
70921;BME280;58572;48.110;19.838;2023-02-19T01:38:45;97582.59;;;6.80;72.44
70921;BME280;58572;48.110;19.838;2023-02-19T01:41:17;97569.88;;;6.75;72.11
70921;BME280;58572;48.110;19.838;2023-02-19T01:44:00;97580.56;;;6.34;73.56
70921;BME280;58572;48.110;19.838;2023-02-19T01:46:29;97591.22;;;6.14;72.56
70921;BME280;58572;48.110;19.838;2023-02-19T01:48:58;97566.72;;;5.78;74.27
70921;BME280;58572;48.110;19.838;2023-02-19T01:51:27;97591.03;;;7.14;72.92
70921;BME280;58572;48.110;19.838;2023-02-19T01:53:58;97598.63;;;7.27;70.94
70921;BME280;58572;48.110;19.838;2023-02-19T01:56:30;97587.03;;;7.47;70.68
70921;BME280;58572;48.110;19.838;2023-02-19T01:58:59;97579.72;;;7.32;71.94
70921;BME280;58572;48.110;19.838;2023-02-19T02:01:27;97599.47;;;6.39;72.81
70921;BME280;58572;48.110;19.838;2023-02-19T02:03:54;97447.06;;;6.00;71.92
70921;BME280;58572;48.110;19.838;2023-02-19T02:06:22;97526.59;;;6.45;73.33
70921;BME280;58572;48.110;19.838;2023-02-19T02:08:52;97587.31;;;7.35;72.37
70921;BME280;58572;48.110;19.838;2023-02-19T02:11:41;97592.16;;;7.63;71.72
70921;BME280;58572;48.110;19.838;2023-02-19T02:14:11;97568.56;;;8.05;70.11
70921;BME280;58572;48.110;19.838;2023-02-19T02:16:43;97589.47;;;7.48;71.75
70921;BME280;58572;48.110;19.838;2023-02-19T02:19:29;97597.59;;;7.58;71.17
70921;BME280;58572;48.110;19.838;2023-02-19T02:22:05;97595.63;;;8.05;70.66
70921;BME280;58572;48.110;19.838;2023-02-19T02:27:50;97593.69;;;8.20;69.44
70921;BME280;58572;48.110;19.838;2023-02-19T02:30:32;97601.34;;;7.83;70.97
70921;BME280;58572;48.110;19.838;2023-02-19T02:33:11;97608.88;;;8.11;71.03
70921;BME280;58572;48.110;19.838;2023-02-19T02:35:44;97617.28;;;7.99;70.87
70921;BME280;58572;48.110;19.838;2023-02-19T02:38:14;97607.28;;;8.00;69.91
70921;BME280;58572;48.110;19.838;2023-02-19T02:40:44;97560.69;;;8.08;69.96
70921;BME280;58572;48.110;19.838;2023-02-19T02:43:12;97631.09;;;8.34;69.48
70921;BME280;58572;48.110;19.838;2023-02-19T02:45:41;97629.41;;;8.27;70.13
70921;BME280;58572;48.110;19.838;2023-02-19T02:48:16;97634.03;;;8.22;70.67
70921;BME280;58572;48.110;19.838;2023-02-19T02:50:48;97630.25;;;8.43;69.79
70921;BME280;58572;48.110;19.838;2023-02-19T02:53:20;97627.22;;;8.60;68.68
70921;BME280;58572;48.110;19.838;2023-02-19T02:56:05;97627.53;;;8.43;70.02
70921;BME280;58572;48.110;19.838;2023-02-19T02:58:34;97610.75;;;9.01;68.31
70921;BME280;58572;48.110;19.838;2023-02-19T03:01:06;97617.19;;;8.60;69.37
70921;BME280;58572;48.110;19.838;2023-02-19T03:03:56;97619.13;;;8.45;69.76
70921;BME280;58572;48.110;19.838;2023-02-19T03:06:28;97623.63;;;8.75;68.69
70921;BME280;58572;48.110;19.838;2023-02-19T03:08:59;97622.34;;;8.57;68.62
70921;BME280;58572;48.110;19.838;2023-02-19T03:11:30;97626.16;;;8.51;69.87
70921;BME280;58572;48.110;19.838;2023-02-19T03:14:18;97626.22;;;8.36;69.50
70921;BME280;58572;48.110;19.838;2023-02-19T03:17:09;97629.75;;;8.95;67.98
70921;BME280;58572;48.110;19.838;2023-02-19T03:23:08;97643.38;;;8.80;68.56
70921;BME280;58572;48.110;19.838;2023-02-19T03:25:39;97643.44;;;8.65;68.76
70921;BME280;58572;48.110;19.838;2023-02-19T03:28:27;97650.28;;;8.47;69.04
70921;BME280;58572;48.110;19.838;2023-02-19T03:31:18;97633.66;;;8.74;68.44
70921;BME280;58572;48.110;19.838;2023-02-19T03:33:53;97626.25;;;8.90;67.52
70921;BME280;58572;48.110;19.838;2023-02-19T03:36:29;97637.06;;;7.95;69.24
70921;BME280;58572;48.110;19.838;2023-02-19T03:39:03;97631.09;;;7.93;68.58
70921;BME280;58572;48.110;19.838;2023-02-19T03:41:35;97636.50;;;8.03;69.47
70921;BME280;58572;48.110;19.838;2023-02-19T03:44:09;97629.75;;;7.45;71.60
70921;BME280;58572;48.110;19.838;2023-02-19T03:46:46;97652.22;;;7.50;70.46
70921;BME280;58572;48.110;19.838;2023-02-19T03:49:23;97637.63;;;7.51;71.44
70921;BME280;58572;48.110;19.838;2023-02-19T03:52:00;97652.34;;;6.98;70.14
70921;BME280;58572;48.110;19.838;2023-02-19T03:54:34;97657.38;;;7.62;70.38
70921;BME280;58572;48.110;19.838;2023-02-19T03:57:13;97659.91;;;6.91;72.81
70921;BME280;58572;48.110;19.838;2023-02-19T03:59:49;97663.38;;;6.76;74.27
70921;BME280;58572;48.110;19.838;2023-02-19T04:02:26;97651.94;;;6.54;74.68
70921;BME280;58572;48.110;19.838;2023-02-19T04:05:03;97517.28;;;6.15;73.43
70921;BME280;58572;48.110;19.838;2023-02-19T04:07:36;97663.22;;;6.46;74.32
70921;BME280;58572;48.110;19.838;2023-02-19T04:10:06;97604.16;;;6.64;72.77
70921;BME280;58572;48.110;19.838;2023-02-19T04:12:38;97660.06;;;7.97;69.46
70921;BME280;58572;48.110;19.838;2023-02-19T04:15:10;97682.13;;;7.13;72.44
70921;BME280;58572;48.110;19.838;2023-02-19T04:17:44;97667.84;;;7.23;72.36
70921;BME280;58572;48.110;19.838;2023-02-19T04:20:16;97661.44;;;7.80;70.67
70921;BME280;58572;48.110;19.838;2023-02-19T04:22:45;97542.28;;;6.53;71.30
70921;BME280;58572;48.110;19.838;2023-02-19T04:25:14;97662.41;;;7.13;73.28
70921;BME280;58572;48.110;19.838;2023-02-19T04:27:43;97652.13;;;6.42;76.28
70921;BME280;58572;48.110;19.838;2023-02-19T04:30:13;97633.81;;;6.49;76.86
70921;BME280;58572;48.110;19.838;2023-02-19T04:32:42;97635.09;;;6.36;77.19
70921;BME280;58572;48.110;19.838;2023-02-19T04:35:10;97645.34;;;7.02;74.76
70921;BME280;58572;48.110;19.838;2023-02-19T04:37:40;97643.28;;;7.55;71.92
70921;BME280;58572;48.110;19.838;2023-02-19T04:40:09;97650.88;;;7.63;71.84
70921;BME280;58572;48.110;19.838;2023-02-19T04:42:38;97656.56;;;7.82;70.66
70921;BME280;58572;48.110;19.838;2023-02-19T04:45:07;97671.00;;;6.94;75.27
70921;BME280;58572;48.110;19.838;2023-02-19T04:47:35;97662.50;;;7.63;71.71
70921;BME280;58572;48.110;19.838;2023-02-19T04:50:04;97653.84;;;7.46;72.58
70921;BME280;58572;48.110;19.838;2023-02-19T04:52:33;97640.31;;;7.77;73.93
70921;BME280;58572;48.110;19.838;2023-02-19T04:55:05;97650.06;;;7.42;73.77
70921;BME280;58572;48.110;19.838;2023-02-19T04:57:34;97654.25;;;6.97;75.30
70921;BME280;58572;48.110;19.838;2023-02-19T05:00:03;97657.63;;;7.71;73.79
70921;BME280;58572;48.110;19.838;2023-02-19T05:02:34;97655.47;;;7.83;72.00
70921;BME280;58572;48.110;19.838;2023-02-19T05:05:03;97672.25;;;7.59;72.95
70921;BME280;58572;48.110;19.838;2023-02-19T05:07:30;97652.72;;;8.49;71.29
70921;BME280;58572;48.110;19.838;2023-02-19T05:09:58;97652.66;;;8.69;69.72
70921;BME280;58572;48.110;19.838;2023-02-19T05:12:29;97643.94;;;8.77;69.36
70921;BME280;58572;48.110;19.838;2023-02-19T05:14:59;97617.56;;;7.98;71.24
70921;BME280;58572;48.110;19.838;2023-02-19T05:17:29;97635.91;;;8.52;69.51
70921;BME280;58572;48.110;19.838;2023-02-19T05:19:59;97634.91;;;7.97;71.63
70921;BME280;58572;48.110;19.838;2023-02-19T05:22:27;97653.53;;;8.24;71.33
70921;BME280;58572;48.110;19.838;2023-02-19T05:24:54;97638.69;;;7.96;72.63
70921;BME280;58572;48.110;19.838;2023-02-19T05:27:21;97645.19;;;7.95;71.38
70921;BME280;58572;48.110;19.838;2023-02-19T05:29:50;97645.72;;;8.07;71.52
70921;BME280;58572;48.110;19.838;2023-02-19T05:32:17;97639.78;;;7.90;70.39
70921;BME280;58572;48.110;19.838;2023-02-19T05:34:44;97636.75;;;8.42;69.67
70921;BME280;58572;48.110;19.838;2023-02-19T05:37:11;97634.28;;;8.51;69.00
70921;BME280;58572;48.110;19.838;2023-02-19T05:39:38;97634.84;;;8.17;70.83
70921;BME280;58572;48.110;19.838;2023-02-19T05:42:05;97625.38;;;8.25;69.87
70921;BME280;58572;48.110;19.838;2023-02-19T05:44:32;97638.44;;;7.82;70.23
70921;BME280;58572;48.110;19.838;2023-02-19T05:47:01;97621.94;;;7.48;73.19
70921;BME280;58572;48.110;19.838;2023-02-19T05:49:28;97613.28;;;7.41;72.85
70921;BME280;58572;48.110;19.838;2023-02-19T05:51:55;97621.28;;;7.00;74.85
70921;BME280;58572;48.110;19.838;2023-02-19T05:54:22;97615.19;;;6.53;76.52
70921;BME280;58572;48.110;19.838;2023-02-19T05:56:49;97614.19;;;6.74;74.52
70921;BME280;58572;48.110;19.838;2023-02-19T05:59:18;97618.56;;;6.95;74.10
70921;BME280;58572;48.110;19.838;2023-02-19T06:01:46;97625.44;;;6.46;76.43
70921;BME280;58572;48.110;19.838;2023-02-19T06:04:15;97618.63;;;7.16;74.34
70921;BME280;58572;48.110;19.838;2023-02-19T06:06:43;97626.16;;;7.03;73.84
70921;BME280;58572;48.110;19.838;2023-02-19T06:09:11;97624.44;;;6.72;75.53
70921;BME280;58572;48.110;19.838;2023-02-19T06:11:39;97618.63;;;7.16;74.66
70921;BME280;58572;48.110;19.838;2023-02-19T06:14:09;97619.59;;;6.79;76.80
70921;BME280;58572;48.110;19.838;2023-02-19T06:16:37;97640.03;;;7.38;74.37
70921;BME280;58572;48.110;19.838;2023-02-19T06:19:04;97632.66;;;7.08;75.71
70921;BME280;58572;48.110;19.838;2023-02-19T06:21:32;97644.66;;;7.93;72.52
70921;BME280;58572;48.110;19.838;2023-02-19T06:24:04;97638.28;;;8.69;70.53
70921;BME280;58572;48.110;19.838;2023-02-19T06:26:31;97636.50;;;8.34;71.39
70921;BME280;58572;48.110;19.838;2023-02-19T06:28:59;97637.06;;;7.64;72.75
70921;BME280;58572;48.110;19.838;2023-02-19T06:31:26;97633.28;;;7.86;71.96
70921;BME280;58572;48.110;19.838;2023-02-19T06:33:53;97621.56;;;8.46;70.96
70921;BME280;58572;48.110;19.838;2023-02-19T06:36:20;97548.00;;;8.04;70.46
70921;BME280;58572;48.110;19.838;2023-02-19T06:38:49;97612.38;;;9.02;69.07
70921;BME280;58572;48.110;19.838;2023-02-19T06:41:17;97609.81;;;8.71;69.35
70921;BME280;58572;48.110;19.838;2023-02-19T06:43:44;97608.31;;;8.24;70.84
70921;BME280;58572;48.110;19.838;2023-02-19T06:46:12;97599.31;;;9.09;70.13
70921;BME280;58572;48.110;19.838;2023-02-19T06:48:40;97539.53;;;8.41;69.74
70921;BME280;58572;48.110;19.838;2023-02-19T06:51:11;97601.22;;;9.08;69.48
70921;BME280;58572;48.110;19.838;2023-02-19T06:53:38;97590.47;;;8.93;70.29
70921;BME280;58572;48.110;19.838;2023-02-19T06:56:20;97586.94;;;8.92;70.12
70921;BME280;58572;48.110;19.838;2023-02-19T06:58:49;97587.97;;;9.46;67.53
70921;BME280;58572;48.110;19.838;2023-02-19T07:01:16;97584.94;;;9.52;67.95
70921;BME280;58572;48.110;19.838;2023-02-19T07:03:43;97591.47;;;9.80;67.29
70921;BME280;58572;48.110;19.838;2023-02-19T07:06:10;97589.25;;;9.14;68.38
70921;BME280;58572;48.110;19.838;2023-02-19T07:08:37;97582.13;;;8.79;69.97
70921;BME280;58572;48.110;19.838;2023-02-19T07:11:05;97584.72;;;9.00;69.75
70921;BME280;58572;48.110;19.838;2023-02-19T07:13:33;97560.41;;;9.28;68.21
70921;BME280;58572;48.110;19.838;2023-02-19T07:16:02;97559.69;;;9.13;68.93
70921;BME280;58572;48.110;19.838;2023-02-19T07:18:30;97597.34;;;9.19;69.18
70921;BME280;58572;48.110;19.838;2023-02-19T07:21:02;97586.75;;;9.23;69.21
70921;BME280;58572;48.110;19.838;2023-02-19T07:23:29;97582.81;;;9.05;69.41
70921;BME280;58572;48.110;19.838;2023-02-19T07:25:56;97587.34;;;9.54;67.61
70921;BME280;58572;48.110;19.838;2023-02-19T07:28:24;97583.00;;;9.14;69.11
70921;BME280;58572;48.110;19.838;2023-02-19T07:30:52;97587.84;;;8.78;70.07
70921;BME280;58572;48.110;19.838;2023-02-19T07:33:19;97576.09;;;9.71;68.02
70921;BME280;58572;48.110;19.838;2023-02-19T07:35:47;97575.34;;;9.26;69.09
70921;BME280;58572;48.110;19.838;2023-02-19T07:38:15;97568.00;;;9.66;68.08
70921;BME280;58572;48.110;19.838;2023-02-19T07:40:49;97580.88;;;9.50;68.67
70921;BME280;58572;48.110;19.838;2023-02-19T07:43:16;97570.97;;;9.30;69.33
70921;BME280;58572;48.110;19.838;2023-02-19T07:45:43;97573.41;;;9.66;67.83
70921;BME280;58572;48.110;19.838;2023-02-19T07:48:12;97571.72;;;9.75;68.06
70921;BME280;58572;48.110;19.838;2023-02-19T07:50:39;97569.88;;;9.31;69.46
70921;BME280;58572;48.110;19.838;2023-02-19T07:53:06;97573.41;;;9.32;69.65
70921;BME280;58572;48.110;19.838;2023-02-19T07:55:34;97572.59;;;9.31;69.73
70921;BME280;58572;48.110;19.838;2023-02-19T07:58:01;97579.63;;;9.71;68.53
70921;BME280;58572;48.110;19.838;2023-02-19T08:00:28;97578.53;;;9.38;69.07
70921;BME280;58572;48.110;19.838;2023-02-19T08:02:55;97577.50;;;9.92;68.09
70921;BME280;58572;48.110;19.838;2023-02-19T08:05:26;97585.13;;;9.90;68.37
70921;BME280;58572;48.110;19.838;2023-02-19T08:07:55;97546.13;;;9.52;68.83
70921;BME280;58572;48.110;19.838;2023-02-19T08:10:22;97581.50;;;9.71;68.51
70921;BME280;58572;48.110;19.838;2023-02-19T08:13:10;97598.38;;;9.68;69.57
70921;BME280;58572;48.110;19.838;2023-02-19T08:15:51;97597.19;;;9.79;69.37
70921;BME280;58572;48.110;19.838;2023-02-19T08:18:21;97595.03;;;10.05;68.46
70921;BME280;58572;48.110;19.838;2023-02-19T08:20:50;97592.97;;;9.63;69.85
70921;BME280;58572;48.110;19.838;2023-02-19T08:23:17;97588.47;;;9.82;69.34
70921;BME280;58572;48.110;19.838;2023-02-19T08:25:49;97588.63;;;10.24;68.17
70921;BME280;58572;48.110;19.838;2023-02-19T08:28:17;97584.66;;;9.83;69.31
70921;BME280;58572;48.110;19.838;2023-02-19T08:30:45;97590.66;;;9.80;69.38
70921;BME280;58572;48.110;19.838;2023-02-19T08:33:14;97590.53;;;9.95;69.30
70921;BME280;58572;48.110;19.838;2023-02-19T08:35:42;97581.78;;;9.98;69.41
70921;BME280;58572;48.110;19.838;2023-02-19T08:38:12;97584.81;;;10.26;68.99
70921;BME280;58572;48.110;19.838;2023-02-19T08:40:41;97586.13;;;9.70;70.56
70921;BME280;58572;48.110;19.838;2023-02-19T08:43:10;97581.38;;;10.44;69.21
70921;BME280;58572;48.110;19.838;2023-02-19T08:45:38;97577.13;;;10.33;68.41
70921;BME280;58572;48.110;19.838;2023-02-19T08:48:06;97541.56;;;9.76;69.88
70921;BME280;58572;48.110;19.838;2023-02-19T08:50:34;97563.06;;;9.97;70.04
70921;BME280;58572;48.110;19.838;2023-02-19T08:53:02;97570.44;;;10.49;68.90
70921;BME280;58572;48.110;19.838;2023-02-19T08:55:32;97554.69;;;10.88;67.52
70921;BME280;58572;48.110;19.838;2023-02-19T08:57:59;97557.91;;;10.91;68.17
70921;BME280;58572;48.110;19.838;2023-02-19T09:00:27;97559.91;;;11.04;68.15
70921;BME280;58572;48.110;19.838;2023-02-19T09:02:54;97445.50;;;10.44;68.71
70921;BME280;58572;48.110;19.838;2023-02-19T09:05:23;97469.50;;;11.44;65.54
70921;BME280;58572;48.110;19.838;2023-02-19T09:07:50;97490.31;;;11.35;65.50
70921;BME280;58572;48.110;19.838;2023-02-19T09:10:17;97544.78;;;12.14;65.79
70921;BME280;58572;48.110;19.838;2023-02-19T09:12:46;97550.19;;;11.35;67.62
70921;BME280;58572;48.110;19.838;2023-02-19T09:15:13;97540.63;;;11.70;65.80
70921;BME280;58572;48.110;19.838;2023-02-19T09:17:40;97545.75;;;11.39;67.11
70921;BME280;58572;48.110;19.838;2023-02-19T09:20:08;97545.91;;;11.29;68.64
70921;BME280;58572;48.110;19.838;2023-02-19T09:22:35;97552.63;;;11.18;68.73
70921;BME280;58572;48.110;19.838;2023-02-19T09:25:03;97559.53;;;11.29;69.00
70921;BME280;58572;48.110;19.838;2023-02-19T09:27:30;97531.94;;;11.36;68.49
70921;BME280;58572;48.110;19.838;2023-02-19T09:29:59;97536.94;;;11.47;67.65
70921;BME280;58572;48.110;19.838;2023-02-19T09:32:29;97552.59;;;10.62;70.45
70921;BME280;58572;48.110;19.838;2023-02-19T09:34:56;97546.72;;;10.54;71.96
70921;BME280;58572;48.110;19.838;2023-02-19T09:37:24;97480.22;;;10.84;70.19
70921;BME280;58572;48.110;19.838;2023-02-19T09:39:52;97540.31;;;11.39;69.25
70921;BME280;58572;48.110;19.838;2023-02-19T09:42:22;97536.88;;;11.99;68.29
70921;BME280;58572;48.110;19.838;2023-02-19T09:44:52;97385.75;;;10.76;68.61
70921;BME280;58572;48.110;19.838;2023-02-19T09:47:23;97522.13;;;10.83;70.93
70921;BME280;58572;48.110;19.838;2023-02-19T09:49:52;97517.38;;;11.45;68.17
70921;BME280;58572;48.110;19.838;2023-02-19T09:52:29;97535.03;;;11.29;69.42
70921;BME280;58572;48.110;19.838;2023-02-19T09:55:00;97443.50;;;11.66;67.29
70921;BME280;58572;48.110;19.838;2023-02-19T09:57:30;97504.28;;;11.47;69.06
70921;BME280;58572;48.110;19.838;2023-02-19T10:00:04;97514.31;;;11.66;69.13
70921;BME280;58572;48.110;19.838;2023-02-19T10:02:34;97499.25;;;11.55;69.06
70921;BME280;58572;48.110;19.838;2023-02-19T10:05:02;97485.53;;;11.46;68.44
70921;BME280;58572;48.110;19.838;2023-02-19T10:07:35;97475.13;;;12.08;67.12
70921;BME280;58572;48.110;19.838;2023-02-19T10:10:21;97471.00;;;11.50;69.22
70921;BME280;58572;48.110;19.838;2023-02-19T10:12:51;97484.22;;;11.90;67.98
70921;BME280;58572;48.110;19.838;2023-02-19T10:15:25;97476.19;;;11.33;69.50
70921;BME280;58572;48.110;19.838;2023-02-19T10:17:56;97468.94;;;11.42;70.12
70921;BME280;58572;48.110;19.838;2023-02-19T10:20:24;97467.22;;;11.65;68.80
70921;BME280;58572;48.110;19.838;2023-02-19T10:22:57;97477.34;;;11.92;69.20
70921;BME280;58572;48.110;19.838;2023-02-19T10:25:25;97469.69;;;12.08;68.66
70921;BME280;58572;48.110;19.838;2023-02-19T10:27:52;97444.44;;;10.96;70.72
70921;BME280;58572;48.110;19.838;2023-02-19T10:30:22;97456.97;;;11.11;71.28
70921;BME280;58572;48.110;19.838;2023-02-19T10:33:08;97475.59;;;10.66;73.85
70921;BME280;58572;48.110;19.838;2023-02-19T10:35:37;97470.97;;;11.37;71.17
70921;BME280;58572;48.110;19.838;2023-02-19T10:38:05;97470.09;;;11.23;74.08
70921;BME280;58572;48.110;19.838;2023-02-19T10:40:32;97408.97;;;10.50;73.37
70921;BME280;58572;48.110;19.838;2023-02-19T10:43:01;97442.38;;;10.88;73.60
70921;BME280;58572;48.110;19.838;2023-02-19T10:45:33;97470.75;;;10.82;74.65
70921;BME280;58572;48.110;19.838;2023-02-19T10:48:20;97466.38;;;11.18;72.97
70921;BME280;58572;48.110;19.838;2023-02-19T10:50:50;97459.84;;;10.26;76.07
70921;BME280;58572;48.110;19.838;2023-02-19T10:53:33;97472.69;;;10.39;75.62
70921;BME280;58572;48.110;19.838;2023-02-19T10:56:05;97476.78;;;10.41;75.54
70921;BME280;58572;48.110;19.838;2023-02-19T10:58:33;97482.59;;;9.82;77.00
70921;BME280;58572;48.110;19.838;2023-02-19T11:01:10;97478.69;;;10.41;75.80
70921;BME280;58572;48.110;19.838;2023-02-19T11:03:39;97402.22;;;10.05;74.29
70921;BME280;58572;48.110;19.838;2023-02-19T11:06:08;97480.09;;;10.09;76.12
70921;BME280;58572;48.110;19.838;2023-02-19T11:08:49;97454.97;;;9.99;75.62
70921;BME280;58572;48.110;19.838;2023-02-19T11:11:22;97471.56;;;10.21;75.06
70921;BME280;58572;48.110;19.838;2023-02-19T11:13:50;97463.94;;;9.99;76.02
70921;BME280;58572;48.110;19.838;2023-02-19T11:16:17;97468.09;;;9.91;75.58
70921;BME280;58572;48.110;19.838;2023-02-19T11:18:52;97471.09;;;9.90;76.17
70921;BME280;58572;48.110;19.838;2023-02-19T11:21:25;97475.31;;;10.25;74.98
70921;BME280;58572;48.110;19.838;2023-02-19T11:23:58;97464.38;;;10.54;74.36
70921;BME280;58572;48.110;19.838;2023-02-19T11:26:30;97457.44;;;10.80;72.72
70921;BME280;58572;48.110;19.838;2023-02-19T11:29:01;97403.75;;;9.92;77.83
70921;BME280;58572;48.110;19.838;2023-02-19T11:31:37;97443.66;;;11.42;74.26
70921;BME280;58572;48.110;19.838;2023-02-19T11:34:28;97438.34;;;10.05;75.49
70921;BME280;58572;48.110;19.838;2023-02-19T11:37:11;97421.63;;;11.25;73.53
70921;BME280;58572;48.110;19.838;2023-02-19T11:39:41;97379.13;;;10.82;72.33
70921;BME280;58572;48.110;19.838;2023-02-19T11:42:29;97419.38;;;11.45;72.97
70921;BME280;58572;48.110;19.838;2023-02-19T11:45:21;97409.81;;;11.62;73.50
70921;BME280;58572;48.110;19.838;2023-02-19T11:48:14;97401.19;;;11.27;73.56
70921;BME280;58572;48.110;19.838;2023-02-19T11:50:51;97313.53;;;10.70;73.44
70921;BME280;58572;48.110;19.838;2023-02-19T11:53:26;97394.78;;;12.69;71.06
70921;BME280;58572;48.110;19.838;2023-02-19T11:56:06;97390.75;;;12.89;69.74
70921;BME280;58572;48.110;19.838;2023-02-19T11:58:54;97391.75;;;12.21;71.19
70921;BME280;58572;48.110;19.838;2023-02-19T12:01:35;97378.47;;;11.50;71.85
70921;BME280;58572;48.110;19.838;2023-02-19T12:04:24;97385.13;;;12.13;71.31
70921;BME280;58572;48.110;19.838;2023-02-19T12:06:59;97358.25;;;12.20;71.01
70921;BME280;58572;48.110;19.838;2023-02-19T12:09:42;97356.59;;;12.33;70.54
70921;BME280;58572;48.110;19.838;2023-02-19T12:12:29;97296.91;;;11.45;71.39
70921;BME280;58572;48.110;19.838;2023-02-19T12:15:25;97348.00;;;12.03;70.53
70921;BME280;58572;48.110;19.838;2023-02-19T12:20:56;97345.81;;;12.64;70.24
70921;BME280;58572;48.110;19.838;2023-02-19T12:23:50;97343.28;;;12.31;70.45
70921;BME280;58572;48.110;19.838;2023-02-19T12:26:23;97333.13;;;12.23;69.92
70921;BME280;58572;48.110;19.838;2023-02-19T12:29:26;97337.78;;;12.45;69.10
70921;BME280;58572;48.110;19.838;2023-02-19T12:32:13;97338.09;;;12.07;69.58
70921;BME280;58572;48.110;19.838;2023-02-19T12:35:04;97302.78;;;12.02;69.10
70921;BME280;58572;48.110;19.838;2023-02-19T12:37:43;97357.72;;;12.32;70.19
70921;BME280;58572;48.110;19.838;2023-02-19T12:40:36;97360.91;;;12.11;69.83
70921;BME280;58572;48.110;19.838;2023-02-19T12:43:11;97364.16;;;11.86;71.04
70921;BME280;58572;48.110;19.838;2023-02-19T12:45:42;97363.50;;;12.17;70.39
70921;BME280;58572;48.110;19.838;2023-02-19T12:48:15;97366.47;;;12.06;70.54
70921;BME280;58572;48.110;19.838;2023-02-19T12:50:46;97356.78;;;12.36;70.35
70921;BME280;58572;48.110;19.838;2023-02-19T12:53:25;97350.44;;;11.91;71.41
70921;BME280;58572;48.110;19.838;2023-02-19T12:55:56;97366.22;;;12.17;70.18
70921;BME280;58572;48.110;19.838;2023-02-19T12:58:29;97373.78;;;12.20;70.26
70921;BME280;58572;48.110;19.838;2023-02-19T13:00:58;97350.16;;;12.29;69.80
70921;BME280;58572;48.110;19.838;2023-02-19T13:03:29;97363.09;;;12.23;69.02
70921;BME280;58572;48.110;19.838;2023-02-19T13:06:03;97323.59;;;11.98;68.76
70921;BME280;58572;48.110;19.838;2023-02-19T13:08:36;97349.03;;;12.30;68.35
70921;BME280;58572;48.110;19.838;2023-02-19T13:11:10;97359.91;;;12.07;69.15
70921;BME280;58572;48.110;19.838;2023-02-19T13:13:43;97352.38;;;12.27;68.57
70921;BME280;58572;48.110;19.838;2023-02-19T13:16:13;97342.75;;;12.43;67.10
70921;BME280;58572;48.110;19.838;2023-02-19T13:18:45;97365.22;;;12.62;67.69
70921;BME280;58572;48.110;19.838;2023-02-19T13:21:13;97355.56;;;12.42;67.62
70921;BME280;58572;48.110;19.838;2023-02-19T13:24:03;97285.69;;;11.88;67.05
70921;BME280;58572;48.110;19.838;2023-02-19T13:26:46;97365.34;;;11.52;68.30
70921;BME280;58572;48.110;19.838;2023-02-19T13:29:28;97285.00;;;11.55;68.23